sensor_id;sensor_type;location;lat;lon;timestamp;P1;durP1;ratioP1;P2;durP2;ratioP2
21266;SDS011;10791;53.108;18.326;2023-07-30T00:03:08;6.95;;;3.58;;
21266;SDS011;10791;53.108;18.326;2023-07-30T00:08:12;9.18;;;3.83;;
21266;SDS011;10791;53.108;18.326;2023-07-30T00:13:16;9.20;;;4.00;;
21266;SDS011;10791;53.108;18.326;2023-07-30T00:18:20;6.60;;;4.20;;
21266;SDS011;10791;53.108;18.326;2023-07-30T00:23:23;6.45;;;4.03;;
21266;SDS011;10791;53.108;18.326;2023-07-30T00:28:26;5.80;;;4.00;;
21266;SDS011;10791;53.108;18.326;2023-07-30T00:33:30;6.72;;;5.72;;
21266;SDS011;10791;53.108;18.326;2023-07-30T00:38:33;10.95;;;5.22;;
21266;SDS011;10791;53.108;18.326;2023-07-30T00:43:37;7.25;;;4.88;;
21266;SDS011;10791;53.108;18.326;2023-07-30T00:48:40;7.22;;;5.47;;
21266;SDS011;10791;53.108;18.326;2023-07-30T00:53:44;8.57;;;5.72;;
21266;SDS011;10791;53.108;18.326;2023-07-30T00:58:48;8.43;;;5.25;;
21266;SDS011;10791;53.108;18.326;2023-07-30T01:03:52;8.50;;;5.40;;
21266;SDS011;10791;53.108;18.326;2023-07-30T01:08:56;8.15;;;5.32;;
21266;SDS011;10791;53.108;18.326;2023-07-30T01:13:59;5.80;;;4.50;;
21266;SDS011;10791;53.108;18.326;2023-07-30T01:19:04;8.15;;;4.78;;
21266;SDS011;10791;53.108;18.326;2023-07-30T01:24:09;9.57;;;5.30;;
21266;SDS011;10791;53.108;18.326;2023-07-30T01:29:14;8.50;;;5.35;;
21266;SDS011;10791;53.108;18.326;2023-07-30T01:34:24;9.77;;;5.43;;
21266;SDS011;10791;53.108;18.326;2023-07-30T01:39:30;7.57;;;4.78;;
21266;SDS011;10791;53.108;18.326;2023-07-30T01:44:36;8.38;;;5.15;;
21266;SDS011;10791;53.108;18.326;2023-07-30T01:49:39;7.57;;;5.43;;
21266;SDS011;10791;53.108;18.326;2023-07-30T01:54:43;10.45;;;5.47;;
21266;SDS011;10791;53.108;18.326;2023-07-30T01:59:46;10.60;;;5.88;;
21266;SDS011;10791;53.108;18.326;2023-07-30T02:04:49;9.65;;;6.55;;
21266;SDS011;10791;53.108;18.326;2023-07-30T02:09:53;10.23;;;6.05;;
21266;SDS011;10791;53.108;18.326;2023-07-30T02:14:56;11.20;;;6.18;;
21266;SDS011;10791;53.108;18.326;2023-07-30T02:19:59;12.30;;;7.15;;
21266;SDS011;10791;53.108;18.326;2023-07-30T02:25:03;11.40;;;7.20;;
21266;SDS011;10791;53.108;18.326;2023-07-30T02:30:06;9.73;;;6.63;;
21266;SDS011;10791;53.108;18.326;2023-07-30T02:35:10;9.82;;;6.80;;
21266;SDS011;10791;53.108;18.326;2023-07-30T02:40:13;13.75;;;7.85;;
21266;SDS011;10791;53.108;18.326;2023-07-30T02:45:17;12.10;;;7.18;;
21266;SDS011;10791;53.108;18.326;2023-07-30T02:50:21;13.30;;;7.80;;
21266;SDS011;10791;53.108;18.326;2023-07-30T02:55:24;13.00;;;7.60;;
21266;SDS011;10791;53.108;18.326;2023-07-30T03:00:28;9.95;;;7.28;;
21266;SDS011;10791;53.108;18.326;2023-07-30T03:05:31;13.65;;;7.50;;
21266;SDS011;10791;53.108;18.326;2023-07-30T03:10:38;13.65;;;7.63;;
21266;SDS011;10791;53.108;18.326;2023-07-30T03:15:41;10.70;;;6.97;;
21266;SDS011;10791;53.108;18.326;2023-07-30T03:20:44;10.40;;;6.30;;
21266;SDS011;10791;53.108;18.326;2023-07-30T03:25:48;10.27;;;7.18;;
21266;SDS011;10791;53.108;18.326;2023-07-30T03:30:51;10.43;;;6.90;;
21266;SDS011;10791;53.108;18.326;2023-07-30T03:35:55;9.45;;;5.95;;
21266;SDS011;10791;53.108;18.326;2023-07-30T03:40:58;11.18;;;6.72;;
21266;SDS011;10791;53.108;18.326;2023-07-30T03:46:02;10.93;;;6.68;;
21266;SDS011;10791;53.108;18.326;2023-07-30T03:51:05;12.60;;;6.60;;
21266;SDS011;10791;53.108;18.326;2023-07-30T03:56:10;10.15;;;6.43;;
21266;SDS011;10791;53.108;18.326;2023-07-30T04:01:14;13.50;;;6.72;;
21266;SDS011;10791;53.108;18.326;2023-07-30T04:06:17;11.20;;;7.22;;
21266;SDS011;10791;53.108;18.326;2023-07-30T04:11:21;10.95;;;7.05;;
21266;SDS011;10791;53.108;18.326;2023-07-30T04:16:24;10.65;;;7.57;;
21266;SDS011;10791;53.108;18.326;2023-07-30T04:21:28;12.20;;;7.25;;
21266;SDS011;10791;53.108;18.326;2023-07-30T04:26:31;12.52;;;7.18;;
21266;SDS011;10791;53.108;18.326;2023-07-30T04:31:34;16.40;;;7.85;;
21266;SDS011;10791;53.108;18.326;2023-07-30T04:36:38;12.68;;;8.07;;
21266;SDS011;10791;53.108;18.326;2023-07-30T04:41:41;12.43;;;7.03;;
21266;SDS011;10791;53.108;18.326;2023-07-30T04:46:45;13.00;;;8.52;;
21266;SDS011;10791;53.108;18.326;2023-07-30T04:51:48;12.50;;;8.70;;
21266;SDS011;10791;53.108;18.326;2023-07-30T04:56:51;15.10;;;8.85;;
21266;SDS011;10791;53.108;18.326;2023-07-30T05:01:55;12.95;;;8.30;;
21266;SDS011;10791;53.108;18.326;2023-07-30T05:06:58;14.23;;;8.05;;
21266;SDS011;10791;53.108;18.326;2023-07-30T05:12:02;15.48;;;8.48;;
21266;SDS011;10791;53.108;18.326;2023-07-30T05:17:05;15.45;;;9.45;;
21266;SDS011;10791;53.108;18.326;2023-07-30T05:22:09;17.80;;;9.25;;
21266;SDS011;10791;53.108;18.326;2023-07-30T05:27:13;15.07;;;9.40;;
21266;SDS011;10791;53.108;18.326;2023-07-30T05:32:16;15.60;;;9.15;;
21266;SDS011;10791;53.108;18.326;2023-07-30T05:37:20;14.90;;;9.30;;
21266;SDS011;10791;53.108;18.326;2023-07-30T05:42:23;19.55;;;10.20;;
21266;SDS011;10791;53.108;18.326;2023-07-30T05:47:26;15.43;;;9.57;;
21266;SDS011;10791;53.108;18.326;2023-07-30T05:52:30;14.13;;;9.52;;
21266;SDS011;10791;53.108;18.326;2023-07-30T05:57:33;15.50;;;10.25;;
21266;SDS011;10791;53.108;18.326;2023-07-30T06:02:38;15.90;;;10.15;;
21266;SDS011;10791;53.108;18.326;2023-07-30T06:07:42;17.23;;;9.52;;
21266;SDS011;10791;53.108;18.326;2023-07-30T06:12:45;15.02;;;9.43;;
21266;SDS011;10791;53.108;18.326;2023-07-30T06:17:48;18.35;;;9.60;;
21266;SDS011;10791;53.108;18.326;2023-07-30T06:22:52;17.40;;;10.68;;
21266;SDS011;10791;53.108;18.326;2023-07-30T06:27:58;15.95;;;10.45;;
21266;SDS011;10791;53.108;18.326;2023-07-30T06:33:02;14.38;;;9.73;;
21266;SDS011;10791;53.108;18.326;2023-07-30T06:38:05;17.63;;;9.65;;
21266;SDS011;10791;53.108;18.326;2023-07-30T06:43:11;17.60;;;10.38;;
21266;SDS011;10791;53.108;18.326;2023-07-30T06:48:14;19.23;;;10.45;;
21266;SDS011;10791;53.108;18.326;2023-07-30T06:53:20;16.67;;;11.40;;
21266;SDS011;10791;53.108;18.326;2023-07-30T06:58:24;14.60;;;10.52;;
21266;SDS011;10791;53.108;18.326;2023-07-30T07:03:27;16.35;;;11.75;;
21266;SDS011;10791;53.108;18.326;2023-07-30T07:08:33;16.40;;;11.95;;
21266;SDS011;10791;53.108;18.326;2023-07-30T07:13:36;18.20;;;11.52;;
21266;SDS011;10791;53.108;18.326;2023-07-30T07:18:39;14.88;;;9.65;;
21266;SDS011;10791;53.108;18.326;2023-07-30T07:23:43;15.70;;;9.93;;
21266;SDS011;10791;53.108;18.326;2023-07-30T07:28:46;15.75;;;10.27;;
21266;SDS011;10791;53.108;18.326;2023-07-30T07:33:49;12.88;;;9.93;;
21266;SDS011;10791;53.108;18.326;2023-07-30T07:38:53;18.40;;;11.93;;
21266;SDS011;10791;53.108;18.326;2023-07-30T07:43:57;17.20;;;11.45;;
21266;SDS011;10791;53.108;18.326;2023-07-30T07:49:00;17.60;;;11.07;;
21266;SDS011;10791;53.108;18.326;2023-07-30T07:54:07;16.10;;;11.43;;
21266;SDS011;10791;53.108;18.326;2023-07-30T07:59:10;16.33;;;10.63;;
21266;SDS011;10791;53.108;18.326;2023-07-30T08:04:14;12.40;;;9.50;;
21266;SDS011;10791;53.108;18.326;2023-07-30T08:09:18;11.77;;;9.60;;
21266;SDS011;10791;53.108;18.326;2023-07-30T08:14:22;13.82;;;9.27;;
21266;SDS011;10791;53.108;18.326;2023-07-30T08:19:25;14.20;;;9.57;;
21266;SDS011;10791;53.108;18.326;2023-07-30T08:24:29;13.75;;;8.77;;
21266;SDS011;10791;53.108;18.326;2023-07-30T08:29:33;12.68;;;8.93;;
21266;SDS011;10791;53.108;18.326;2023-07-30T08:34:40;13.35;;;9.05;;
21266;SDS011;10791;53.108;18.326;2023-07-30T08:39:44;11.63;;;8.65;;
21266;SDS011;10791;53.108;18.326;2023-07-30T08:44:51;10.73;;;7.78;;
21266;SDS011;10791;53.108;18.326;2023-07-30T08:49:54;11.50;;;8.23;;
21266;SDS011;10791;53.108;18.326;2023-07-30T08:54:59;10.40;;;8.07;;
21266;SDS011;10791;53.108;18.326;2023-07-30T09:00:05;11.07;;;8.38;;
21266;SDS011;10791;53.108;18.326;2023-07-30T09:05:13;11.48;;;8.38;;
21266;SDS011;10791;53.108;18.326;2023-07-30T09:10:17;9.15;;;7.78;;
21266;SDS011;10791;53.108;18.326;2023-07-30T09:15:28;9.70;;;7.93;;
21266;SDS011;10791;53.108;18.326;2023-07-30T09:20:39;9.63;;;6.90;;
21266;SDS011;10791;53.108;18.326;2023-07-30T09:25:44;11.40;;;7.45;;
21266;SDS011;10791;53.108;18.326;2023-07-30T09:30:52;11.70;;;6.25;;
21266;SDS011;10791;53.108;18.326;2023-07-30T09:36:21;9.20;;;6.57;;
21266;SDS011;10791;53.108;18.326;2023-07-30T09:41:24;7.95;;;6.22;;
21266;SDS011;10791;53.108;18.326;2023-07-30T09:46:28;8.43;;;5.82;;
21266;SDS011;10791;53.108;18.326;2023-07-30T09:51:33;7.57;;;6.00;;
21266;SDS011;10791;53.108;18.326;2023-07-30T09:56:38;8.00;;;6.20;;
21266;SDS011;10791;53.108;18.326;2023-07-30T10:01:46;11.48;;;6.30;;
21266;SDS011;10791;53.108;18.326;2023-07-30T10:06:56;7.88;;;5.28;;
21266;SDS011;10791;53.108;18.326;2023-07-30T10:12:06;9.13;;;6.75;;
21266;SDS011;10791;53.108;18.326;2023-07-30T10:17:11;7.25;;;5.30;;
21266;SDS011;10791;53.108;18.326;2023-07-30T10:27:23;7.97;;;6.07;;
21266;SDS011;10791;53.108;18.326;2023-07-30T10:32:37;8.50;;;5.38;;
21266;SDS011;10791;53.108;18.326;2023-07-30T10:37:45;5.43;;;4.60;;
21266;SDS011;10791;53.108;18.326;2023-07-30T10:42:50;5.05;;;4.30;;
21266;SDS011;10791;53.108;18.326;2023-07-30T10:48:03;7.93;;;4.85;;
21266;SDS011;10791;53.108;18.326;2023-07-30T10:53:08;5.35;;;4.15;;
21266;SDS011;10791;53.108;18.326;2023-07-30T10:58:11;4.68;;;3.80;;
21266;SDS011;10791;53.108;18.326;2023-07-30T11:03:16;8.68;;;4.72;;
21266;SDS011;10791;53.108;18.326;2023-07-30T11:08:32;5.40;;;3.58;;
21266;SDS011;10791;53.108;18.326;2023-07-30T11:13:44;5.70;;;3.95;;
21266;SDS011;10791;53.108;18.326;2023-07-30T11:18:49;4.43;;;3.78;;
21266;SDS011;10791;53.108;18.326;2023-07-30T11:23:53;4.70;;;3.75;;
21266;SDS011;10791;53.108;18.326;2023-07-30T11:28:56;6.95;;;4.60;;
21266;SDS011;10791;53.108;18.326;2023-07-30T11:33:59;4.90;;;3.38;;
21266;SDS011;10791;53.108;18.326;2023-07-30T11:39:03;4.68;;;3.67;;
21266;SDS011;10791;53.108;18.326;2023-07-30T11:44:06;5.65;;;3.33;;
21266;SDS011;10791;53.108;18.326;2023-07-30T11:49:10;4.13;;;3.10;;
21266;SDS011;10791;53.108;18.326;2023-07-30T11:54:23;4.68;;;3.03;;
21266;SDS011;10791;53.108;18.326;2023-07-30T11:59:27;2.80;;;2.53;;
21266;SDS011;10791;53.108;18.326;2023-07-30T12:04:31;3.38;;;2.90;;
21266;SDS011;10791;53.108;18.326;2023-07-30T12:09:46;4.28;;;3.28;;
21266;SDS011;10791;53.108;18.326;2023-07-30T12:19:52;4.07;;;2.22;;
21266;SDS011;10791;53.108;18.326;2023-07-30T12:24:55;2.53;;;2.17;;
21266;SDS011;10791;53.108;18.326;2023-07-30T12:29:58;2.95;;;2.38;;
21266;SDS011;10791;53.108;18.326;2023-07-30T12:35:02;3.50;;;2.22;;
21266;SDS011;10791;53.108;18.326;2023-07-30T12:40:05;2.55;;;1.95;;
21266;SDS011;10791;53.108;18.326;2023-07-30T12:45:09;2.38;;;1.48;;
21266;SDS011;10791;53.108;18.326;2023-07-30T12:50:13;4.38;;;1.95;;
21266;SDS011;10791;53.108;18.326;2023-07-30T12:55:19;2.30;;;1.90;;
21266;SDS011;10791;53.108;18.326;2023-07-30T13:00:25;6.15;;;1.50;;
21266;SDS011;10791;53.108;18.326;2023-07-30T13:05:29;1.80;;;1.30;;
21266;SDS011;10791;53.108;18.326;2023-07-30T13:10:33;2.67;;;1.90;;
21266;SDS011;10791;53.108;18.326;2023-07-30T13:15:37;2.58;;;1.92;;
21266;SDS011;10791;53.108;18.326;2023-07-30T13:20:40;3.75;;;2.25;;
21266;SDS011;10791;53.108;18.326;2023-07-30T13:25:44;4.68;;;1.98;;
21266;SDS011;10791;53.108;18.326;2023-07-30T13:30:48;2.45;;;1.75;;
21266;SDS011;10791;53.108;18.326;2023-07-30T13:35:53;2.25;;;1.40;;
21266;SDS011;10791;53.108;18.326;2023-07-30T13:40:57;3.75;;;2.00;;
21266;SDS011;10791;53.108;18.326;2023-07-30T13:46:01;3.30;;;1.85;;
21266;SDS011;10791;53.108;18.326;2023-07-30T13:51:06;3.67;;;2.28;;
21266;SDS011;10791;53.108;18.326;2023-07-30T13:56:09;2.90;;;2.08;;
21266;SDS011;10791;53.108;18.326;2023-07-30T14:01:13;4.18;;;2.13;;
21266;SDS011;10791;53.108;18.326;2023-07-30T14:06:18;1.92;;;1.50;;
21266;SDS011;10791;53.108;18.326;2023-07-30T14:11:22;2.30;;;1.70;;
21266;SDS011;10791;53.108;18.326;2023-07-30T14:16:26;4.35;;;2.00;;
21266;SDS011;10791;53.108;18.326;2023-07-30T14:21:30;2.67;;;1.92;;
21266;SDS011;10791;53.108;18.326;2023-07-30T14:26:33;2.20;;;1.83;;
21266;SDS011;10791;53.108;18.326;2023-07-30T14:31:36;2.38;;;1.63;;
21266;SDS011;10791;53.108;18.326;2023-07-30T14:36:42;2.28;;;1.52;;
21266;SDS011;10791;53.108;18.326;2023-07-30T14:41:46;2.42;;;1.60;;
21266;SDS011;10791;53.108;18.326;2023-07-30T14:46:50;1.88;;;1.45;;
21266;SDS011;10791;53.108;18.326;2023-07-30T14:51:56;3.00;;;1.30;;
21266;SDS011;10791;53.108;18.326;2023-07-30T14:56:59;2.60;;;1.45;;
21266;SDS011;10791;53.108;18.326;2023-07-30T15:02:03;1.90;;;1.08;;
21266;SDS011;10791;53.108;18.326;2023-07-30T15:07:07;1.48;;;1.00;;
21266;SDS011;10791;53.108;18.326;2023-07-30T15:12:12;1.85;;;1.30;;
21266;SDS011;10791;53.108;18.326;2023-07-30T15:17:16;2.15;;;1.40;;
21266;SDS011;10791;53.108;18.326;2023-07-30T15:22:19;2.05;;;1.63;;
21266;SDS011;10791;53.108;18.326;2023-07-30T15:27:23;2.17;;;1.25;;
21266;SDS011;10791;53.108;18.326;2023-07-30T15:32:28;3.30;;;1.25;;
21266;SDS011;10791;53.108;18.326;2023-07-30T15:37:33;1.77;;;1.30;;
21266;SDS011;10791;53.108;18.326;2023-07-30T15:42:36;2.00;;;1.20;;
21266;SDS011;10791;53.108;18.326;2023-07-30T15:47:39;3.88;;;1.17;;
21266;SDS011;10791;53.108;18.326;2023-07-30T15:52:44;2.33;;;1.50;;
21266;SDS011;10791;53.108;18.326;2023-07-30T15:57:55;1.58;;;1.17;;
21266;SDS011;10791;53.108;18.326;2023-07-30T16:02:59;1.60;;;1.08;;
21266;SDS011;10791;53.108;18.326;2023-07-30T16:08:07;2.05;;;1.15;;
21266;SDS011;10791;53.108;18.326;2023-07-30T16:13:11;1.70;;;1.10;;
21266;SDS011;10791;53.108;18.326;2023-07-30T16:18:15;2.53;;;1.38;;
21266;SDS011;10791;53.108;18.326;2023-07-30T16:23:19;2.38;;;1.40;;
21266;SDS011;10791;53.108;18.326;2023-07-30T16:28:23;2.70;;;1.42;;
21266;SDS011;10791;53.108;18.326;2023-07-30T16:33:27;3.20;;;1.52;;
21266;SDS011;10791;53.108;18.326;2023-07-30T16:38:30;1.95;;;1.33;;
21266;SDS011;10791;53.108;18.326;2023-07-30T16:43:35;2.60;;;1.27;;
21266;SDS011;10791;53.108;18.326;2023-07-30T16:48:38;2.90;;;1.75;;
21266;SDS011;10791;53.108;18.326;2023-07-30T16:53:42;2.35;;;1.25;;
21266;SDS011;10791;53.108;18.326;2023-07-30T16:58:45;2.50;;;1.38;;
21266;SDS011;10791;53.108;18.326;2023-07-30T17:03:50;3.17;;;1.50;;
21266;SDS011;10791;53.108;18.326;2023-07-30T17:08:54;1.85;;;1.35;;
21266;SDS011;10791;53.108;18.326;2023-07-30T17:13:58;2.42;;;1.48;;
21266;SDS011;10791;53.108;18.326;2023-07-30T17:19:02;2.63;;;1.60;;
21266;SDS011;10791;53.108;18.326;2023-07-30T17:24:06;2.75;;;1.27;;
21266;SDS011;10791;53.108;18.326;2023-07-30T17:29:10;6.72;;;1.52;;
21266;SDS011;10791;53.108;18.326;2023-07-30T17:34:14;2.45;;;1.65;;
21266;SDS011;10791;53.108;18.326;2023-07-30T17:39:18;3.50;;;1.35;;
21266;SDS011;10791;53.108;18.326;2023-07-30T17:44:21;2.67;;;1.60;;
21266;SDS011;10791;53.108;18.326;2023-07-30T17:49:25;3.03;;;2.03;;
21266;SDS011;10791;53.108;18.326;2023-07-30T17:54:29;2.88;;;1.70;;
21266;SDS011;10791;53.108;18.326;2023-07-30T17:59:33;2.42;;;1.40;;
21266;SDS011;10791;53.108;18.326;2023-07-30T18:04:37;2.72;;;1.60;;
21266;SDS011;10791;53.108;18.326;2023-07-30T18:09:41;2.80;;;1.67;;
21266;SDS011;10791;53.108;18.326;2023-07-30T18:14:45;5.68;;;2.00;;
21266;SDS011;10791;53.108;18.326;2023-07-30T18:19:48;3.28;;;1.65;;
21266;SDS011;10791;53.108;18.326;2023-07-30T18:24:52;2.92;;;1.75;;
21266;SDS011;10791;53.108;18.326;2023-07-30T18:29:55;2.58;;;1.55;;
21266;SDS011;10791;53.108;18.326;2023-07-30T18:35:01;2.70;;;1.35;;
21266;SDS011;10791;53.108;18.326;2023-07-30T18:40:08;3.53;;;1.25;;
21266;SDS011;10791;53.108;18.326;2023-07-30T18:45:11;2.30;;;1.60;;
21266;SDS011;10791;53.108;18.326;2023-07-30T18:50:15;5.32;;;2.25;;
21266;SDS011;10791;53.108;18.326;2023-07-30T18:55:19;3.13;;;1.70;;
21266;SDS011;10791;53.108;18.326;2023-07-30T19:00:22;4.90;;;1.65;;
21266;SDS011;10791;53.108;18.326;2023-07-30T19:05:26;4.45;;;2.55;;
21266;SDS011;10791;53.108;18.326;2023-07-30T19:10:32;6.45;;;3.55;;
21266;SDS011;10791;53.108;18.326;2023-07-30T19:15:37;2.53;;;1.67;;
21266;SDS011;10791;53.108;18.326;2023-07-30T19:20:43;3.03;;;1.77;;
21266;SDS011;10791;53.108;18.326;2023-07-30T19:25:49;2.00;;;1.40;;
21266;SDS011;10791;53.108;18.326;2023-07-30T19:30:54;2.88;;;1.75;;
21266;SDS011;10791;53.108;18.326;2023-07-30T19:35:58;1.80;;;1.42;;
21266;SDS011;10791;53.108;18.326;2023-07-30T19:41:02;2.65;;;1.60;;
21266;SDS011;10791;53.108;18.326;2023-07-30T19:46:27;2.47;;;1.55;;
21266;SDS011;10791;53.108;18.326;2023-07-30T19:51:32;3.03;;;1.67;;
21266;SDS011;10791;53.108;18.326;2023-07-30T19:56:36;2.30;;;1.42;;
21266;SDS011;10791;53.108;18.326;2023-07-30T20:01:40;3.53;;;2.42;;
21266;SDS011;10791;53.108;18.326;2023-07-30T20:06:45;2.88;;;1.60;;
21266;SDS011;10791;53.108;18.326;2023-07-30T20:11:53;5.82;;;2.08;;
21266;SDS011;10791;53.108;18.326;2023-07-30T20:16:57;4.22;;;2.03;;
21266;SDS011;10791;53.108;18.326;2023-07-30T20:22:03;3.58;;;1.77;;
21266;SDS011;10791;53.108;18.326;2023-07-30T20:27:07;3.03;;;2.10;;
21266;SDS011;10791;53.108;18.326;2023-07-30T20:32:10;3.10;;;2.00;;
21266;SDS011;10791;53.108;18.326;2023-07-30T20:37:14;3.17;;;1.98;;
21266;SDS011;10791;53.108;18.326;2023-07-30T20:42:18;4.45;;;2.47;;
21266;SDS011;10791;53.108;18.326;2023-07-30T20:47:22;4.65;;;2.85;;
21266;SDS011;10791;53.108;18.326;2023-07-30T20:52:26;3.45;;;2.45;;
21266;SDS011;10791;53.108;18.326;2023-07-30T20:57:29;3.42;;;2.25;;
21266;SDS011;10791;53.108;18.326;2023-07-30T21:02:33;4.13;;;2.10;;
21266;SDS011;10791;53.108;18.326;2023-07-30T21:07:36;3.55;;;2.45;;
21266;SDS011;10791;53.108;18.326;2023-07-30T21:12:40;5.22;;;2.40;;
21266;SDS011;10791;53.108;18.326;2023-07-30T21:17:43;3.92;;;2.28;;
21266;SDS011;10791;53.108;18.326;2023-07-30T21:22:47;4.07;;;2.47;;
21266;SDS011;10791;53.108;18.326;2023-07-30T21:27:50;4.07;;;2.38;;
21266;SDS011;10791;53.108;18.326;2023-07-30T21:32:56;3.08;;;2.13;;
21266;SDS011;10791;53.108;18.326;2023-07-30T21:38:00;3.22;;;2.40;;
21266;SDS011;10791;53.108;18.326;2023-07-30T21:43:04;3.40;;;2.25;;
21266;SDS011;10791;53.108;18.326;2023-07-30T21:48:09;3.95;;;2.47;;
21266;SDS011;10791;53.108;18.326;2023-07-30T21:53:13;3.45;;;2.47;;
21266;SDS011;10791;53.108;18.326;2023-07-30T21:58:20;5.82;;;2.90;;
21266;SDS011;10791;53.108;18.326;2023-07-30T22:03:24;4.93;;;3.30;;
21266;SDS011;10791;53.108;18.326;2023-07-30T22:08:28;5.45;;;2.97;;
21266;SDS011;10791;53.108;18.326;2023-07-30T22:13:32;4.05;;;2.63;;
21266;SDS011;10791;53.108;18.326;2023-07-30T22:18:35;4.85;;;3.38;;
21266;SDS011;10791;53.108;18.326;2023-07-30T22:23:43;4.97;;;3.65;;
21266;SDS011;10791;53.108;18.326;2023-07-30T22:28:46;6.82;;;3.40;;
21266;SDS011;10791;53.108;18.326;2023-07-30T22:33:50;4.85;;;3.30;;
21266;SDS011;10791;53.108;18.326;2023-07-30T22:38:53;4.10;;;3.08;;
21266;SDS011;10791;53.108;18.326;2023-07-30T22:43:56;5.38;;;3.33;;
21266;SDS011;10791;53.108;18.326;2023-07-30T22:49:01;4.10;;;3.15;;
21266;SDS011;10791;53.108;18.326;2023-07-30T22:54:04;7.38;;;3.20;;
21266;SDS011;10791;53.108;18.326;2023-07-30T22:59:08;4.45;;;3.53;;
21266;SDS011;10791;53.108;18.326;2023-07-30T23:04:11;4.80;;;2.45;;
21266;SDS011;10791;53.108;18.326;2023-07-30T23:09:15;4.07;;;2.85;;
21266;SDS011;10791;53.108;18.326;2023-07-30T23:14:18;3.75;;;2.35;;
21266;SDS011;10791;53.108;18.326;2023-07-30T23:19:21;4.57;;;2.60;;
21266;SDS011;10791;53.108;18.326;2023-07-30T23:24:25;5.40;;;2.13;;
21266;SDS011;10791;53.108;18.326;2023-07-30T23:29:29;3.97;;;1.90;;
21266;SDS011;10791;53.108;18.326;2023-07-30T23:34:32;7.85;;;2.03;;
21266;SDS011;10791;53.108;18.326;2023-07-30T23:39:35;3.20;;;1.70;;
21266;SDS011;10791;53.108;18.326;2023-07-30T23:44:39;3.65;;;1.90;;
21266;SDS011;10791;53.108;18.326;2023-07-30T23:49:42;4.68;;;2.00;;
21266;SDS011;10791;53.108;18.326;2023-07-30T23:54:46;7.30;;;1.85;;
21266;SDS011;10791;53.108;18.326;2023-07-30T23:59:49;4.65;;;1.85;;
